createdAt,value
2019-03-17T00:01:04.314Z,3.53
2019-03-17T00:03:33.427Z,3.67
2019-03-17T00:06:02.347Z,3.47
2019-03-17T00:08:31.275Z,3.97
2019-03-17T00:11:00.266Z,4.10
2019-03-17T00:13:29.228Z,3.90
2019-03-17T00:15:58.391Z,3.60
2019-03-17T00:18:27.403Z,3.20
2019-03-17T00:20:56.366Z,3.57
2019-03-17T00:23:25.433Z,3.67
2019-03-17T00:25:54.370Z,3.37
2019-03-17T00:28:23.578Z,3.40
2019-03-17T00:30:52.602Z,3.87
2019-03-17T00:33:21.555Z,3.60
2019-03-17T00:35:50.909Z,3.37
2019-03-17T00:38:20.018Z,3.50
2019-03-17T00:40:49.022Z,3.47
2019-03-17T00:43:20.715Z,3.40
2019-03-17T00:45:49.652Z,2.63
2019-03-17T00:48:18.912Z,3.73
2019-03-17T00:50:49.077Z,3.87
2019-03-17T00:53:18.446Z,3.33
2019-03-17T00:55:47.463Z,3.10
2019-03-17T00:58:16.385Z,3.20
2019-03-17T01:00:45.582Z,3.27
2019-03-17T01:03:14.727Z,3.10
2019-03-17T01:05:43.696Z,3.30
2019-03-17T01:08:12.766Z,3.70
2019-03-17T01:10:41.886Z,3.30
2019-03-17T01:13:11.136Z,3.83
2019-03-17T01:15:40.150Z,3.70
2019-03-17T01:18:09.242Z,3.40
2019-03-17T01:20:38.414Z,3.03
2019-03-17T01:23:07.322Z,3.60
2019-03-17T01:25:36.307Z,3.70
2019-03-17T01:28:05.386Z,3.30
2019-03-17T01:30:34.499Z,3.77
2019-03-17T01:33:03.554Z,4.33
2019-03-17T01:35:32.827Z,3.77
2019-03-17T01:38:02.272Z,3.90
2019-03-17T01:40:31.315Z,4.20
2019-03-17T01:43:00.363Z,4.23
2019-03-17T01:45:29.348Z,3.90
2019-03-17T01:47:58.625Z,3.30
2019-03-17T01:50:27.639Z,4.40
2019-03-17T01:52:56.542Z,4.00
2019-03-17T01:55:25.486Z,4.33
2019-03-17T01:57:54.484Z,3.87
2019-03-17T02:00:23.486Z,4.07
2019-03-17T02:02:52.855Z,4.23
2019-03-17T02:05:22.599Z,3.87
2019-03-17T02:07:51.766Z,3.87
2019-03-17T02:10:20.680Z,4.30
2019-03-17T02:12:49.730Z,4.20
2019-03-17T02:15:18.627Z,3.97
2019-03-17T02:17:47.699Z,4.00
2019-03-17T02:20:16.974Z,4.10
2019-03-17T02:22:45.964Z,4.20
2019-03-17T02:25:15.051Z,4.20
2019-03-17T02:27:43.976Z,4.10
2019-03-17T02:30:12.945Z,3.73
2019-03-17T02:32:41.841Z,3.80
2019-03-17T02:35:11.055Z,3.70
2019-03-17T02:37:40.316Z,3.63
2019-03-17T02:40:09.450Z,4.00
2019-03-17T02:42:39.255Z,3.80
2019-03-17T02:45:08.799Z,3.47
2019-03-17T02:47:37.874Z,3.30
2019-03-17T02:50:07.306Z,3.90
2019-03-17T02:52:36.256Z,3.40
2019-03-17T02:55:05.982Z,3.97
2019-03-17T02:57:35.158Z,3.13
2019-03-17T03:00:04.682Z,3.27
2019-03-17T03:02:33.779Z,3.37
2019-03-17T03:05:02.998Z,3.57
2019-03-17T03:07:31.985Z,3.43
2019-03-17T03:10:01.097Z,3.07
2019-03-17T03:12:30.331Z,2.83
2019-03-17T03:14:59.366Z,2.73
2019-03-17T03:17:28.445Z,2.67
2019-03-17T03:19:57.532Z,2.80
2019-03-17T03:22:26.627Z,2.93
2019-03-17T03:24:55.972Z,3.63
2019-03-17T03:27:24.931Z,2.90
2019-03-17T03:29:53.960Z,2.90
2019-03-17T03:32:23.035Z,2.57
2019-03-17T03:34:52.014Z,2.87
2019-03-17T03:37:21.097Z,2.43
2019-03-17T03:39:50.450Z,2.37
2019-03-17T03:42:19.617Z,2.40
2019-03-17T03:44:48.535Z,2.37
2019-03-17T03:47:17.635Z,2.20
2019-03-17T03:49:46.717Z,2.43
2019-03-17T03:52:15.903Z,2.00
2019-03-17T03:54:45.008Z,1.90
2019-03-17T03:57:14.204Z,2.20
2019-03-17T03:59:43.332Z,1.80
2019-03-17T04:02:12.346Z,1.73
2019-03-17T04:04:41.421Z,1.90
2019-03-17T04:07:10.442Z,2.00
2019-03-17T04:09:39.765Z,1.97
2019-03-17T04:12:08.763Z,1.87
2019-03-17T04:14:37.777Z,2.00
2019-03-17T04:17:06.950Z,1.97
2019-03-17T04:19:36.274Z,1.53
2019-03-17T04:22:05.354Z,1.77
2019-03-17T04:24:34.948Z,1.80
2019-03-17T04:27:03.971Z,1.37
2019-03-17T04:29:33.008Z,2.10
2019-03-17T04:32:01.995Z,1.43
2019-03-17T04:34:30.951Z,1.43
2019-03-17T04:36:59.904Z,1.50
2019-03-17T04:39:28.940Z,1.57
2019-03-17T04:41:57.922Z,1.67
2019-03-17T04:44:26.912Z,1.23
2019-03-17T04:46:56.078Z,1.20
2019-03-17T04:49:25.026Z,1.70
2019-03-17T04:51:54.230Z,1.30
2019-03-17T04:54:23.194Z,1.20
2019-03-17T04:56:52.244Z,1.53
2019-03-17T04:59:21.487Z,1.40
2019-03-17T05:01:50.424Z,1.20
2019-03-17T05:04:19.493Z,1.57
2019-03-17T05:06:52.993Z,1.63
2019-03-17T05:09:19.171Z,1.53
2019-03-17T05:11:48.134Z,1.60
2019-03-17T05:14:17.067Z,1.20
2019-03-17T05:16:46.036Z,1.50
2019-03-17T05:19:15.048Z,1.77
2019-03-17T05:21:44.023Z,1.73
2019-03-17T05:24:12.938Z,1.67
2019-03-17T05:26:41.910Z,0.60
2019-03-17T05:29:11.045Z,0.60
2019-03-17T05:31:40.490Z,0.50
2019-03-17T05:34:09.543Z,0.90
2019-03-17T05:36:38.676Z,0.50
2019-03-17T05:39:08.083Z,0.60
2019-03-17T05:41:37.093Z,0.60
2019-03-17T05:44:06.218Z,0.37
2019-03-17T05:46:35.127Z,0.40
2019-03-17T05:49:04.574Z,0.50
2019-03-17T05:51:33.647Z,0.20
2019-03-17T05:54:02.751Z,0.30
2019-03-17T05:56:31.816Z,0.30
2019-03-17T05:59:00.798Z,0.30
2019-03-17T06:01:30.013Z,0.40
2019-03-17T06:03:59.116Z,0.10
2019-03-17T06:06:28.267Z,0.47
2019-03-17T06:08:57.382Z,0.37
2019-03-17T06:11:26.647Z,0.43
2019-03-17T06:13:56.007Z,0.37
2019-03-17T06:16:25.495Z,0.27
2019-03-17T06:18:54.975Z,0.20
2019-03-17T06:21:24.071Z,0.40
2019-03-17T06:23:53.200Z,0.37
2019-03-17T06:26:22.295Z,0.50
2019-03-17T06:28:51.276Z,0.17
2019-03-17T06:31:20.207Z,0.57
2019-03-17T06:33:49.502Z,0.33
2019-03-17T06:36:18.558Z,0.30
2019-03-17T06:38:47.529Z,0.37
2019-03-17T06:41:16.467Z,0.60
2019-03-17T06:43:45.494Z,0.53
2019-03-17T06:46:14.536Z,0.10
2019-03-17T06:48:43.484Z,0.40
2019-03-17T06:51:12.347Z,0.30
2019-03-17T06:53:41.358Z,0.20
2019-03-17T06:56:10.378Z,0.20
2019-03-17T06:58:39.346Z,0.20
2019-03-17T07:01:08.238Z,0.40
2019-03-17T07:03:37.250Z,0.70
2019-03-17T07:06:06.298Z,0.40
2019-03-17T07:08:35.258Z,0.50
2019-03-17T07:11:04.587Z,0.20
2019-03-17T07:13:33.619Z,0.40
2019-03-17T07:16:02.659Z,0.40
2019-03-17T07:18:31.718Z,0.50
2019-03-17T07:21:00.730Z,0.50
2019-03-17T07:23:29.950Z,0.30
2019-03-17T07:25:59.031Z,0.60
2019-03-17T07:28:28.044Z,0.40
2019-03-17T07:30:56.967Z,0.30
2019-03-17T07:33:25.995Z,0.40
2019-03-17T07:35:55.103Z,0.27
2019-03-17T07:38:24.558Z,0.73
2019-03-17T07:40:53.765Z,0.50
2019-03-17T07:43:22.692Z,0.60
2019-03-17T07:45:51.806Z,0.63
2019-03-17T07:48:20.907Z,0.50
2019-03-17T07:50:49.938Z,0.73
2019-03-17T07:53:18.969Z,0.47
2019-03-17T07:55:48.033Z,0.60
2019-03-17T07:58:17.191Z,0.60
2019-03-17T08:00:46.238Z,0.50
2019-03-17T08:03:15.385Z,0.40
2019-03-17T08:05:44.723Z,0.60
2019-03-17T08:08:13.810Z,0.50
2019-03-17T08:10:42.888Z,0.70
2019-03-17T08:13:11.906Z,0.67
2019-03-17T08:15:41.118Z,0.30
2019-03-17T08:18:10.275Z,0.70
2019-03-17T08:20:39.269Z,1.03
2019-03-17T08:23:08.363Z,0.53
2019-03-17T08:25:37.682Z,0.97
2019-03-17T08:28:06.734Z,0.83
2019-03-17T08:30:35.827Z,0.73
2019-03-17T08:33:04.913Z,0.50
2019-03-17T08:35:33.938Z,0.53
2019-03-17T08:38:02.880Z,0.40
2019-03-17T08:40:31.823Z,0.70
2019-03-17T08:43:00.762Z,0.73
2019-03-17T08:45:29.843Z,0.60
2019-03-17T08:47:58.847Z,0.50
2019-03-17T08:50:28.163Z,0.63
2019-03-17T08:52:57.191Z,1.00
2019-03-17T08:55:26.190Z,0.60
2019-03-17T08:57:55.299Z,0.80
2019-03-17T09:00:24.457Z,1.00
2019-03-17T09:02:53.573Z,0.63
2019-03-17T09:05:22.752Z,0.93
2019-03-17T09:07:51.699Z,0.83
2019-03-17T09:10:20.756Z,1.40
2019-03-17T09:12:50.156Z,0.90
2019-03-17T09:15:19.122Z,1.10
2019-03-17T09:17:48.192Z,0.67
2019-03-17T09:20:17.393Z,1.00
2019-03-17T09:22:46.489Z,0.90
2019-03-17T09:25:15.411Z,0.87
2019-03-17T09:27:44.723Z,1.00
2019-03-17T09:30:14.166Z,0.70
2019-03-17T09:32:43.127Z,0.90
2019-03-17T09:35:12.231Z,0.77
2019-03-17T09:37:42.375Z,0.73
2019-03-17T09:40:12.252Z,0.80
2019-03-17T09:42:41.359Z,0.53
2019-03-17T09:45:10.554Z,0.60
2019-03-17T09:47:41.200Z,0.50
2019-03-17T09:50:10.679Z,0.90
2019-03-17T09:52:40.012Z,0.80
2019-03-17T09:55:09.011Z,0.53
2019-03-17T09:57:38.401Z,0.97
2019-03-17T10:00:08.967Z,0.80
2019-03-17T10:02:38.100Z,0.70
2019-03-17T10:05:07.843Z,0.70
2019-03-17T10:07:38.398Z,0.97
2019-03-17T10:10:09.630Z,0.63
2019-03-17T10:12:38.873Z,0.87
2019-03-17T10:15:09.646Z,0.50
2019-03-17T10:17:38.869Z,0.63
2019-03-17T10:20:10.187Z,0.60
2019-03-17T10:22:39.877Z,0.70
2019-03-17T10:25:09.811Z,1.07
2019-03-17T10:27:38.978Z,0.80
2019-03-17T10:30:09.578Z,1.20
2019-03-17T10:32:41.510Z,1.23
2019-03-17T10:35:10.711Z,0.53
2019-03-17T10:37:39.910Z,0.70
2019-03-17T10:40:11.643Z,0.40
2019-03-17T10:42:40.695Z,0.40
2019-03-17T10:45:10.314Z,0.30
2019-03-17T10:47:39.247Z,0.80
2019-03-17T10:50:10.428Z,0.93
2019-03-17T10:52:39.290Z,0.60
2019-03-17T10:55:10.155Z,0.90
2019-03-17T10:57:39.454Z,0.40
2019-03-17T11:00:11.127Z,0.50
2019-03-17T11:02:40.215Z,0.40
2019-03-17T11:05:09.577Z,0.60
2019-03-17T11:07:38.536Z,0.80
2019-03-17T11:10:07.710Z,0.50
2019-03-17T11:12:36.615Z,0.70
2019-03-17T11:15:06.535Z,1.17
2019-03-17T11:17:35.462Z,0.60
2019-03-17T11:20:05.059Z,0.50
2019-03-17T11:22:33.996Z,0.50
2019-03-17T11:25:03.024Z,0.70
2019-03-17T11:27:31.924Z,0.40
2019-03-17T11:30:01.103Z,0.40
2019-03-17T11:32:30.107Z,0.43
2019-03-17T11:34:59.034Z,0.43
2019-03-17T11:37:27.975Z,0.33
2019-03-17T11:39:57.007Z,0.73
2019-03-17T11:42:26.087Z,0.30
2019-03-17T11:44:55.601Z,0.30
2019-03-17T11:47:24.738Z,0.50
2019-03-17T11:49:53.831Z,0.57
2019-03-17T11:52:22.847Z,0.70
2019-03-17T11:54:52.003Z,0.50
2019-03-17T11:57:21.098Z,0.57
2019-03-17T11:59:50.094Z,0.80
2019-03-17T12:02:26.571Z,0.60
2019-03-17T12:05:09.191Z,0.60
2019-03-17T12:07:37.956Z,0.50
2019-03-17T12:10:10.993Z,0.70
2019-03-17T12:12:39.870Z,0.70
2019-03-17T12:15:10.937Z,0.40
2019-03-17T12:17:39.740Z,0.40
2019-03-17T12:20:09.578Z,0.90
2019-03-17T12:22:38.477Z,0.50
2019-03-17T12:25:11.406Z,0.50
2019-03-17T12:27:39.253Z,0.37
2019-03-17T12:30:12.982Z,0.57
2019-03-17T12:32:41.858Z,0.33
2019-03-17T12:35:11.110Z,0.23
2019-03-17T12:37:40.290Z,0.40
2019-03-17T12:40:09.307Z,0.60
2019-03-17T12:42:38.349Z,0.60
2019-03-17T12:45:08.235Z,0.60
2019-03-17T12:47:37.637Z,0.20
2019-03-17T12:50:06.882Z,0.57
2019-03-17T12:52:43.146Z,0.50
2019-03-17T12:55:12.357Z,0.63
2019-03-17T12:57:41.589Z,0.50
2019-03-17T13:00:13.252Z,0.77
2019-03-17T13:02:42.956Z,0.80
2019-03-17T13:05:12.427Z,0.60
2019-03-17T13:07:41.681Z,0.60
2019-03-17T13:10:16.097Z,0.80
2019-03-17T13:12:43.647Z,0.63
2019-03-17T13:15:12.955Z,0.50
2019-03-17T13:17:42.083Z,0.67
2019-03-17T13:20:12.042Z,0.53
2019-03-17T13:22:41.528Z,0.30
2019-03-17T13:25:10.831Z,0.60
2019-03-17T13:27:40.031Z,0.60
2019-03-17T13:30:10.474Z,0.40
2019-03-17T13:32:39.497Z,0.70
2019-03-17T13:35:10.614Z,0.33
2019-03-17T13:37:39.760Z,0.77
2019-03-17T13:40:10.633Z,0.67
2019-03-17T13:42:39.871Z,0.63
2019-03-17T13:45:09.715Z,0.80
2019-03-17T13:47:38.867Z,0.73
2019-03-17T13:50:09.980Z,0.87
2019-03-17T13:52:39.135Z,0.77
2019-03-17T13:55:08.374Z,1.07
2019-03-17T13:57:37.639Z,1.00
2019-03-17T14:00:08.735Z,0.70
2019-03-17T14:02:37.955Z,0.60
2019-03-17T14:05:07.261Z,0.80
2019-03-17T14:07:37.439Z,1.20
2019-03-17T14:10:14.031Z,0.70
2019-03-17T14:12:40.101Z,0.77
2019-03-17T14:15:10.548Z,1.00
2019-03-17T14:17:39.754Z,0.70
2019-03-17T14:20:10.831Z,0.60
2019-03-17T14:22:40.082Z,1.00
2019-03-17T14:25:12.680Z,0.90
2019-03-17T14:27:41.896Z,0.50
2019-03-17T14:30:12.936Z,0.73
2019-03-17T14:32:42.114Z,0.50
2019-03-17T14:35:11.297Z,0.50
2019-03-17T14:37:40.511Z,0.70
2019-03-17T14:40:11.011Z,0.70
2019-03-17T14:42:40.023Z,0.90
2019-03-17T14:45:10.038Z,0.50
2019-03-17T14:47:39.059Z,0.67
2019-03-17T14:50:10.183Z,0.60
2019-03-17T14:52:45.230Z,0.60
2019-03-17T14:55:16.691Z,0.80
2019-03-17T14:57:45.728Z,0.40
2019-03-17T15:00:16.979Z,0.80
2019-03-17T15:02:46.301Z,0.60
2019-03-17T15:05:15.634Z,0.53
2019-03-17T15:07:44.577Z,0.70
2019-03-17T15:10:18.039Z,0.80
2019-03-17T15:12:48.756Z,0.93
2019-03-17T15:15:17.937Z,0.60
2019-03-17T15:17:47.194Z,0.90
2019-03-17T15:20:18.723Z,0.60
2019-03-17T15:22:47.871Z,1.10
2019-03-17T15:25:19.623Z,0.53
2019-03-17T15:27:48.723Z,0.80
2019-03-17T15:30:27.464Z,0.87
2019-03-17T15:32:57.820Z,0.67
2019-03-17T15:35:30.483Z,0.40
2019-03-17T15:38:06.865Z,0.70
2019-03-17T15:40:38.380Z,0.53
2019-03-17T15:43:07.480Z,0.57
2019-03-17T15:45:39.524Z,0.60
2019-03-17T15:48:08.683Z,0.80
2019-03-17T15:50:37.894Z,0.60
2019-03-17T15:53:09.475Z,0.67
2019-03-17T15:55:37.636Z,0.70
2019-03-17T15:58:30.291Z,0.93
2019-03-17T16:00:59.379Z,0.47
2019-03-17T16:03:28.418Z,0.60
2019-03-17T16:05:57.506Z,0.87
2019-03-17T16:08:26.726Z,0.60
2019-03-17T16:10:55.742Z,0.70
2019-03-17T16:13:25.048Z,0.40
2019-03-17T16:15:55.112Z,0.97
2019-03-17T16:18:24.880Z,0.80
2019-03-17T16:20:54.188Z,0.60
2019-03-17T16:23:25.258Z,0.60
2019-03-17T16:25:54.196Z,0.50
2019-03-17T16:28:23.264Z,0.40
2019-03-17T16:30:52.360Z,0.20
2019-03-17T16:33:23.408Z,0.53
2019-03-17T16:35:52.477Z,0.50
2019-03-17T16:38:21.673Z,0.40
2019-03-17T16:40:52.391Z,0.50
2019-03-17T16:43:22.632Z,0.77
2019-03-17T16:45:55.175Z,0.40
2019-03-17T16:48:25.364Z,0.87
2019-03-17T16:50:54.497Z,0.63
2019-03-17T16:53:24.019Z,0.43
2019-03-17T16:55:55.993Z,0.50
2019-03-17T16:58:27.091Z,0.67
2019-03-17T17:00:59.044Z,0.90
2019-03-17T17:03:30.756Z,0.80
2019-03-17T17:06:20.442Z,0.50
2019-03-17T17:08:54.618Z,0.63
2019-03-17T17:11:23.681Z,0.60
2019-03-17T17:14:14.848Z,0.43
2019-03-17T17:16:44.252Z,0.80
2019-03-17T17:19:16.074Z,0.70
2019-03-17T17:21:46.215Z,0.80
2019-03-17T17:24:15.525Z,1.10
2019-03-17T17:26:44.737Z,0.73
2019-03-17T17:29:14.775Z,0.70
2019-03-17T17:32:04.759Z,0.60
2019-03-17T17:34:41.590Z,0.90
2019-03-17T17:37:10.930Z,1.13
2019-03-17T17:39:41.572Z,0.80
2019-03-17T17:42:10.609Z,0.67
2019-03-17T17:44:39.876Z,0.70
2019-03-17T17:47:08.893Z,0.50
2019-03-17T17:49:37.884Z,0.70
2019-03-17T17:52:06.892Z,0.70
2019-03-17T17:54:36.057Z,0.50
2019-03-17T17:57:05.392Z,0.77
2019-03-17T17:59:36.403Z,0.73
2019-03-17T18:02:09.766Z,0.90
2019-03-17T18:04:39.155Z,0.60
2019-03-17T18:07:09.688Z,0.87
2019-03-17T18:09:38.880Z,0.80
2019-03-17T18:12:20.179Z,0.87
2019-03-17T18:14:38.995Z,0.70
2019-03-17T18:17:08.337Z,0.90
2019-03-17T18:19:37.525Z,0.70
2019-03-17T18:22:06.684Z,0.70
2019-03-17T18:24:35.976Z,1.07
2019-03-17T18:27:05.050Z,0.83
2019-03-17T18:29:36.723Z,0.90
2019-03-17T18:32:05.906Z,0.50
2019-03-17T18:34:34.916Z,0.60
2019-03-17T18:37:04.074Z,0.90
2019-03-17T18:39:33.167Z,0.90
2019-03-17T18:42:02.186Z,0.97
2019-03-17T18:44:31.211Z,1.00
2019-03-17T18:47:00.298Z,0.63
2019-03-17T18:49:29.278Z,0.70
2019-03-17T18:51:58.679Z,0.83
2019-03-17T18:54:29.826Z,0.60
2019-03-17T18:56:59.111Z,1.23
2019-03-17T18:59:28.110Z,0.70
2019-03-17T19:06:35.463Z,0.80
2019-03-17T19:09:39.678Z,0.70
2019-03-17T19:15:58.364Z,1.00
2019-03-17T19:23:17.388Z,0.90
2019-03-17T19:26:21.777Z,0.93
2019-03-17T19:28:46.298Z,0.80
2019-03-17T19:31:43.312Z,3.03
2019-03-17T19:34:28.436Z,0.93
2019-03-17T19:37:36.156Z,0.90
2019-03-17T19:40:50.424Z,1.00
2019-03-17T19:46:25.221Z,0.90
2019-03-17T19:52:18.102Z,0.70
2019-03-17T19:55:30.731Z,0.87
2019-03-17T19:58:26.357Z,0.97
2019-03-17T20:03:46.573Z,1.00
2019-03-17T20:04:35.996Z,0.77
2019-03-17T20:10:28.917Z,1.10
2019-03-17T20:13:11.420Z,1.03
2019-03-17T20:16:06.184Z,2.33
2019-03-17T20:18:56.851Z,1.52
2019-03-17T20:21:24.418Z,1.70
2019-03-17T20:24:22.854Z,1.37
2019-03-17T20:27:17.111Z,1.40
2019-03-17T20:30:05.849Z,0.83
2019-03-17T20:32:47.247Z,1.00
2019-03-17T20:36:04.331Z,0.97
2019-03-17T20:39:09.056Z,1.00
2019-03-17T20:42:12.161Z,0.90
2019-03-17T20:44:43.036Z,0.80
2019-03-17T20:47:14.837Z,1.30
2019-03-17T20:49:45.475Z,0.80
2019-03-17T20:52:14.536Z,0.80
2019-03-17T20:54:46.800Z,1.00
2019-03-17T20:57:18.998Z,0.80
2019-03-17T21:00:07.070Z,0.80
2019-03-17T21:02:38.190Z,0.80
2019-03-17T21:05:07.804Z,0.90
2019-03-17T21:07:55.858Z,1.20
2019-03-17T21:10:25.133Z,1.83
2019-03-17T21:13:13.250Z,0.50
2019-03-17T21:15:43.450Z,0.90
2019-03-17T21:18:14.990Z,0.70
2019-03-17T21:20:45.915Z,0.77
2019-03-17T21:23:15.045Z,0.90
2019-03-17T21:26:03.265Z,1.17
2019-03-17T21:28:33.860Z,1.50
2019-03-17T21:31:03.140Z,0.87
2019-03-17T21:33:32.296Z,0.70
2019-03-17T21:36:04.315Z,0.77
2019-03-17T21:38:35.797Z,1.30
2019-03-17T21:41:07.614Z,1.70
2019-03-17T21:43:38.436Z,0.80
2019-03-17T21:46:07.615Z,0.90
2019-03-17T21:48:36.592Z,1.00
2019-03-17T21:51:05.848Z,1.07
2019-03-17T21:53:34.972Z,1.10
2019-03-17T21:56:04.233Z,1.00
2019-03-17T21:58:33.476Z,0.90
2019-03-17T22:01:02.713Z,0.60
2019-03-17T22:03:31.887Z,1.33
2019-03-17T22:06:01.000Z,0.80
2019-03-17T22:08:30.121Z,1.27
2019-03-17T22:10:59.370Z,1.27
2019-03-17T22:13:28.589Z,0.80
2019-03-17T22:15:57.738Z,1.00
2019-03-17T22:18:27.107Z,0.90
2019-03-17T22:20:56.328Z,0.80
2019-03-17T22:23:25.523Z,1.03
2019-03-17T22:25:54.536Z,0.90
2019-03-17T22:28:23.538Z,0.77
2019-03-17T22:30:52.988Z,0.80
2019-03-17T22:33:22.079Z,0.93
2019-03-17T22:35:51.376Z,0.80
2019-03-17T22:38:20.397Z,1.07
2019-03-17T22:40:49.474Z,0.93
2019-03-17T22:43:18.450Z,1.00
2019-03-17T22:45:47.695Z,1.00
2019-03-17T22:48:17.030Z,1.20
2019-03-17T22:50:46.237Z,0.73
2019-03-17T22:53:15.354Z,0.93
2019-03-17T22:55:44.566Z,1.00
2019-03-17T22:58:14.083Z,0.50
2019-03-17T23:00:44.758Z,1.40
2019-03-17T23:03:14.859Z,0.70
2019-03-17T23:05:44.000Z,1.13
2019-03-17T23:08:13.062Z,0.73
2019-03-17T23:10:42.205Z,0.37
2019-03-17T23:13:11.219Z,1.17
2019-03-17T23:15:40.621Z,0.77
2019-03-17T23:18:09.722Z,0.60
2019-03-17T23:20:38.951Z,1.00
2019-03-17T23:23:08.022Z,0.70
2019-03-17T23:25:36.983Z,0.80
2019-03-17T23:28:06.114Z,0.70
2019-03-17T23:30:35.305Z,0.60
2019-03-17T23:33:04.406Z,1.33
2019-03-17T23:35:33.554Z,1.50
2019-03-17T23:38:02.740Z,1.00
2019-03-17T23:40:31.834Z,0.87
2019-03-17T23:43:00.987Z,1.00
2019-03-17T23:45:30.178Z,1.13
2019-03-17T23:47:59.283Z,0.70
2019-03-17T23:50:28.288Z,0.73
2019-03-17T23:52:57.270Z,1.00
2019-03-17T23:55:26.554Z,0.90
2019-03-17T23:57:55.547Z,0.90
